createdAt,value
2022-08-09T00:00:16.187Z,19.35
2022-08-09T00:03:56.931Z,19.10
2022-08-09T00:06:17.445Z,18.87
2022-08-09T00:08:41.638Z,18.67
2022-08-09T00:11:24.478Z,18.52
2022-08-09T00:13:53.448Z,18.36
2022-08-09T00:16:25.833Z,18.24
2022-08-09T00:18:54.607Z,19.59
2022-08-09T00:21:22.886Z,21.83
2022-08-09T00:23:56.288Z,22.46
2022-08-09T00:26:29.798Z,21.50
2022-08-09T00:29:02.494Z,20.65
2022-08-09T00:31:58.595Z,20.12
2022-08-09T00:34:19.891Z,19.72
2022-08-09T00:36:49.160Z,19.47
2022-08-09T00:40:13.364Z,19.26
2022-08-09T00:44:16.200Z,19.06
2022-08-09T00:44:55.092Z,18.90
2022-08-09T00:47:24.990Z,18.78
2022-08-09T00:49:56.350Z,18.67
2022-08-09T00:52:29.980Z,18.56
2022-08-09T00:55:00.383Z,18.44
2022-08-09T00:57:34.493Z,18.35
2022-08-09T01:00:21.986Z,18.29
2022-08-09T01:02:52.964Z,18.23
2022-08-09T01:05:21.885Z,18.20
2022-08-09T01:08:00.537Z,18.18
2022-08-09T01:10:45.089Z,18.16
2022-08-09T01:13:13.206Z,18.14
2022-08-09T01:15:52.275Z,18.11
2022-08-09T01:18:29.723Z,18.11
2022-08-09T01:21:04.759Z,18.11
2022-08-09T01:24:02.010Z,18.09
2022-08-09T01:26:41.762Z,18.10
2022-08-09T01:29:15.976Z,18.08
2022-08-09T01:32:31.997Z,18.07
2022-08-09T01:34:35.979Z,18.05
2022-08-09T01:37:08.965Z,18.05
2022-08-09T01:39:38.265Z,18.07
2022-08-09T01:42:10.855Z,18.09
2022-08-09T01:44:41.576Z,18.09
2022-08-09T01:47:11.842Z,18.10
2022-08-09T01:49:40.740Z,18.11
2022-08-09T01:52:18.925Z,18.12
2022-08-09T01:54:49.531Z,18.12
2022-08-09T01:57:20.746Z,18.13
2022-08-09T02:00:00.202Z,18.14
2022-08-09T02:02:32.054Z,18.14
2022-08-09T02:05:15.649Z,18.14
2022-08-09T02:08:40.763Z,18.12
2022-08-09T02:10:38.887Z,18.11
2022-08-09T02:13:08.639Z,18.10
2022-08-09T02:15:49.347Z,18.09
2022-08-09T02:18:21.988Z,18.08
2022-08-09T02:20:55.546Z,18.05
2022-08-09T02:23:39.746Z,18.02
2022-08-09T02:26:24.823Z,18.00
2022-08-09T02:29:03.586Z,17.98
2022-08-09T02:31:35.569Z,17.97
2022-08-09T02:34:13.844Z,17.95
2022-08-09T02:36:55.350Z,17.94
2022-08-09T02:39:33.659Z,17.94
2022-08-09T02:42:09.206Z,17.94
2022-08-09T02:44:47.111Z,17.93
2022-08-09T02:47:17.021Z,17.91
2022-08-09T02:50:01.483Z,17.89
2022-08-09T02:52:48.495Z,17.86
2022-08-09T02:55:20.382Z,17.83
2022-08-09T02:58:00.410Z,17.81
2022-08-09T03:00:58.164Z,17.78
2022-08-09T03:03:37.271Z,17.75
2022-08-09T03:06:17.082Z,17.71
2022-08-09T03:08:46.302Z,17.68
2022-08-09T03:12:04.775Z,17.64
2022-08-09T03:14:05.841Z,17.60
2022-08-09T03:16:37.367Z,17.56
2022-08-09T03:19:14.519Z,17.57
2022-08-09T03:21:58.728Z,19.46
2022-08-09T03:24:42.764Z,21.60
2022-08-09T03:27:16.990Z,21.56
2022-08-09T03:30:00.657Z,20.65
2022-08-09T03:32:30.813Z,19.92
2022-08-09T03:35:00.047Z,19.49
2022-08-09T03:37:55.814Z,19.18
2022-08-09T03:40:18.129Z,18.92
2022-08-09T03:42:46.923Z,18.75
2022-08-09T03:45:15.738Z,18.59
2022-08-09T03:47:46.652Z,18.44
2022-08-09T03:50:18.907Z,18.30
2022-08-09T03:53:03.117Z,18.13
2022-08-09T03:55:35.968Z,18.00
2022-08-09T03:58:16.467Z,17.89
2022-08-09T04:00:50.006Z,17.79
2022-08-09T04:03:24.547Z,17.71
2022-08-09T04:06:04.641Z,17.62
2022-08-09T04:08:33.552Z,17.55
2022-08-09T04:11:02.034Z,17.51
2022-08-09T04:14:37.040Z,17.47
2022-08-09T04:16:21.160Z,17.44
2022-08-09T04:18:51.141Z,17.41
2022-08-09T04:21:19.918Z,17.40
2022-08-09T04:23:53.724Z,17.40
2022-08-09T04:26:23.311Z,17.39
2022-08-09T04:28:56.157Z,17.39
2022-08-09T04:31:37.404Z,17.39
2022-08-09T04:34:18.846Z,17.40
2022-08-09T04:36:58.421Z,17.41
2022-08-09T04:39:31.214Z,17.42
2022-08-09T04:42:02.737Z,17.43
2022-08-09T04:44:30.930Z,17.44
2022-08-09T04:47:05.941Z,18.52
2022-08-09T04:49:52.196Z,21.04
2022-08-09T04:52:27.135Z,22.32
2022-08-09T04:54:56.658Z,21.57
2022-08-09T04:57:25.061Z,20.71
2022-08-09T04:59:54.505Z,20.13
2022-08-09T05:02:23.478Z,19.76
2022-08-09T05:04:55.189Z,19.52
2022-08-09T05:07:24.431Z,19.32
2022-08-09T05:09:52.503Z,19.15
2022-08-09T05:12:22.721Z,19.02
2022-08-09T05:14:50.899Z,18.90
2022-08-09T05:18:38.084Z,18.80
2022-08-09T05:20:07.783Z,18.70
2022-08-09T05:23:54.578Z,18.64
2022-08-09T05:25:25.066Z,18.55
2022-08-09T05:27:57.853Z,18.49
2022-08-09T05:30:25.921Z,18.45
2022-08-09T05:32:58.858Z,18.42
2022-08-09T05:35:27.082Z,18.40
2022-08-09T05:37:57.507Z,18.40
2022-08-09T05:40:28.963Z,18.39
2022-08-09T05:42:57.848Z,18.39
2022-08-09T05:45:26.124Z,18.39
2022-08-09T05:48:14.164Z,18.38
2022-08-09T05:50:51.388Z,18.39
2022-08-09T05:53:33.993Z,18.40
2022-08-09T05:56:04.336Z,18.41
2022-08-09T05:58:33.177Z,18.43
2022-08-09T06:01:01.146Z,18.44
2022-08-09T06:03:34.853Z,18.45
2022-08-09T06:06:12.294Z,18.48
2022-08-09T06:08:40.458Z,18.51
2022-08-09T06:11:16.388Z,18.53
2022-08-09T06:13:47.334Z,18.55
2022-08-09T06:16:16.324Z,18.58
2022-08-09T06:18:45.089Z,18.62
2022-08-09T06:21:13.060Z,18.66
2022-08-09T06:23:55.392Z,18.72
2022-08-09T06:26:28.507Z,19.69
2022-08-09T06:29:00.746Z,22.05
2022-08-09T06:31:40.599Z,23.45
2022-08-09T06:34:22.791Z,22.70
2022-08-09T06:36:57.396Z,21.89
2022-08-09T06:39:57.306Z,21.34
2022-08-09T06:42:24.762Z,20.96
2022-08-09T06:44:59.214Z,20.72
2022-08-09T06:47:29.952Z,20.54
2022-08-09T06:50:13.348Z,20.39
2022-08-09T06:52:47.310Z,20.25
2022-08-09T06:55:22.961Z,20.17
2022-08-09T06:58:02.901Z,20.07
2022-08-09T07:00:50.168Z,19.98
2022-08-09T07:03:28.528Z,19.89
2022-08-09T07:06:04.620Z,19.84
2022-08-09T07:08:35.168Z,19.79
2022-08-09T07:11:05.206Z,19.76
2022-08-09T07:14:04.067Z,19.74
2022-08-09T07:16:41.446Z,19.71
2022-08-09T07:19:15.492Z,19.70
2022-08-09T07:21:56.006Z,19.69
2022-08-09T07:24:32.446Z,19.68
2022-08-09T07:27:34.281Z,19.67
2022-08-09T07:30:00.418Z,19.67
2022-08-09T07:32:32.563Z,19.67
2022-08-09T07:35:10.024Z,19.66
2022-08-09T07:37:43.004Z,19.66
2022-08-09T07:40:18.261Z,19.69
2022-08-09T07:42:58.878Z,19.72
2022-08-09T07:45:39.449Z,19.75
2022-08-09T07:48:25.261Z,19.78
2022-08-09T07:51:10.328Z,19.83
2022-08-09T07:54:04.438Z,19.88
2022-08-09T07:56:39.016Z,19.94
2022-08-09T07:59:33.894Z,20.00
2022-08-09T08:02:07.085Z,20.05
2022-08-09T08:04:37.439Z,20.09
2022-08-09T08:07:15.081Z,20.14
2022-08-09T08:10:05.776Z,20.21
2022-08-09T08:12:42.352Z,20.26
2022-08-09T08:15:13.745Z,20.32
2022-08-09T08:17:53.090Z,20.37
2022-08-09T08:20:32.360Z,20.44
2022-08-09T08:23:06.283Z,20.50
2022-08-09T08:25:48.192Z,20.57
2022-08-09T08:28:18.189Z,20.63
2022-08-09T08:30:55.093Z,20.73
2022-08-09T08:33:24.699Z,20.81
2022-08-09T08:35:59.531Z,20.87
2022-08-09T08:38:29.391Z,20.91
2022-08-09T08:40:58.270Z,20.95
2022-08-09T08:43:28.036Z,20.99
2022-08-09T08:46:24.876Z,21.03
2022-08-09T08:48:51.762Z,21.08
2022-08-09T08:51:24.634Z,21.14
2022-08-09T08:54:02.985Z,21.22
2022-08-09T08:56:36.267Z,21.30
2022-08-09T08:59:19.908Z,21.37
2022-08-09T09:01:53.220Z,21.45
2022-08-09T09:04:29.128Z,21.54
2022-08-09T09:06:58.430Z,21.64
2022-08-09T09:09:58.171Z,21.75
2022-08-09T09:12:17.131Z,21.84
2022-08-09T09:14:45.886Z,21.92
2022-08-09T09:17:16.298Z,21.99
2022-08-09T09:19:45.201Z,22.06
2022-08-09T09:22:16.012Z,22.11
2022-08-09T09:24:46.264Z,22.12
2022-08-09T09:27:47.235Z,22.11
2022-08-09T09:30:32.924Z,22.08
2022-08-09T09:33:15.887Z,22.05
2022-08-09T09:36:02.489Z,22.02
2022-08-09T09:38:41.440Z,22.00
2022-08-09T09:41:11.867Z,22.00
2022-08-09T09:43:41.275Z,22.02
2022-08-09T09:49:06.359Z,22.07
2022-08-09T09:51:38.316Z,22.09
2022-08-09T09:54:20.698Z,22.14
2022-08-09T09:56:53.349Z,22.22
2022-08-09T09:59:38.307Z,22.34
2022-08-09T10:02:06.892Z,22.40
2022-08-09T10:04:36.115Z,22.50
2022-08-09T10:07:05.075Z,22.61
2022-08-09T10:09:54.948Z,22.76
2022-08-09T10:12:43.853Z,22.93
2022-08-09T17:30:29.059Z,23.29
2022-08-09T17:33:01.428Z,23.27
2022-08-09T17:35:34.734Z,23.24
2022-08-09T17:38:13.862Z,23.23
2022-08-09T17:40:51.298Z,23.20
2022-08-09T17:43:33.976Z,23.18
2022-08-09T17:46:06.786Z,23.15
2022-08-09T17:48:39.532Z,23.12
2022-08-09T17:51:17.344Z,23.10
2022-08-09T17:53:51.559Z,23.06
2022-08-09T17:56:21.914Z,23.03
2022-08-09T17:59:09.573Z,22.99
2022-08-09T18:02:03.613Z,22.95
2022-08-09T18:04:28.787Z,22.91
2022-08-09T18:07:22.933Z,22.87
2022-08-09T18:10:04.771Z,22.83
2022-08-09T18:12:40.608Z,22.79
2022-08-09T18:15:21.939Z,22.75
2022-08-09T18:18:09.986Z,22.71
2022-08-09T18:21:19.288Z,22.67
2022-08-09T18:24:10.522Z,22.63
2022-08-09T18:26:48.331Z,22.58
2022-08-09T18:30:37.956Z,22.54
2022-08-09T18:32:07.431Z,22.50
2022-08-09T18:34:36.819Z,22.47
2022-08-09T18:37:05.295Z,22.42
2022-08-09T18:39:39.647Z,22.38
2022-08-09T18:42:10.246Z,22.34
2022-08-09T18:44:40.377Z,22.30
2022-08-09T18:47:15.818Z,22.25
2022-08-09T18:49:46.851Z,22.21
2022-08-09T18:52:18.687Z,22.18
2022-08-09T18:54:57.541Z,22.12
2022-08-09T18:57:38.270Z,22.08
2022-08-09T19:00:19.133Z,22.03
2022-08-09T19:02:51.338Z,22.00
2022-08-09T19:07:18.814Z,21.93
2022-08-09T19:10:15.473Z,21.89
2022-08-09T19:12:37.877Z,21.83
2022-08-09T19:15:07.839Z,21.79
2022-08-09T19:17:54.750Z,21.76
2022-08-09T19:20:25.150Z,21.72
2022-08-09T19:22:54.379Z,21.68
2022-08-09T19:25:41.589Z,21.66
2022-08-09T19:28:13.376Z,21.61
2022-08-09T19:30:44.323Z,21.58
2022-08-09T19:33:19.702Z,21.54
2022-08-09T19:35:56.835Z,21.50
2022-08-09T19:38:27.840Z,21.46
2022-08-09T19:41:01.952Z,21.43
2022-08-09T19:44:02.006Z,21.41
2022-08-09T19:46:35.517Z,21.38
2022-08-09T19:50:08.795Z,21.36
2022-08-09T19:51:57.160Z,21.33
2022-08-09T19:54:29.118Z,21.30
2022-08-09T19:56:58.681Z,21.27
2022-08-09T19:59:59.763Z,21.23
2022-08-09T20:04:10.846Z,21.18
2022-08-09T20:05:10.299Z,21.13
2022-08-09T20:07:58.587Z,21.11
2022-08-09T20:10:34.480Z,21.09
2022-08-09T20:13:08.074Z,21.06
2022-08-09T20:16:37.770Z,21.03
2022-08-09T20:18:27.975Z,21.00
2022-08-09T20:20:57.412Z,20.96
2022-08-09T20:23:38.935Z,20.94
2022-08-09T20:26:10.267Z,20.91
2022-08-09T20:28:49.734Z,20.88
2022-08-09T20:31:18.853Z,20.84
2022-08-09T20:33:52.366Z,20.81
2022-08-09T20:36:27.437Z,20.77
2022-08-09T20:40:13.081Z,20.72
2022-08-09T20:41:44.238Z,20.67
2022-08-09T20:44:17.121Z,20.62
2022-08-09T20:46:54.822Z,20.57
2022-08-09T20:49:24.222Z,20.52
2022-08-09T20:51:56.902Z,20.46
2022-08-09T20:54:25.850Z,20.42
2022-08-09T20:56:57.470Z,20.37
2022-08-09T21:00:19.638Z,20.32
2022-08-09T21:02:17.361Z,20.27
2022-08-09T21:05:53.627Z,20.22
2022-08-09T21:07:40.716Z,20.16
2022-08-09T21:10:12.633Z,20.11
2022-08-09T21:15:34.495Z,20.01
2022-08-09T21:18:20.975Z,19.97
2022-08-09T21:20:54.139Z,19.92
2022-08-09T21:23:36.033Z,19.88
2022-08-09T21:26:12.533Z,19.83
2022-08-09T21:28:55.413Z,19.79
2022-08-09T21:31:48.654Z,19.73
2022-08-09T21:34:14.802Z,19.68
2022-08-09T21:36:56.989Z,19.59
2022-08-09T21:39:27.900Z,19.51
2022-08-09T21:42:05.853Z,19.43
2022-08-09T21:44:42.671Z,19.38
2022-08-09T21:47:17.476Z,19.36
2022-08-09T21:49:48.496Z,19.32
2022-08-09T21:52:20.513Z,19.29
2022-08-09T21:54:59.489Z,19.24
2022-08-09T21:57:58.589Z,19.17
2022-08-09T22:00:33.229Z,19.12
2022-08-09T22:03:06.249Z,19.07
2022-08-09T22:05:41.705Z,19.05
2022-08-09T22:08:15.265Z,19.02
2022-08-09T22:11:49.497Z,18.98
2022-08-09T22:13:37.549Z,18.94
2022-08-09T22:16:08.724Z,18.90
2022-08-09T22:18:38.553Z,18.88
2022-08-09T22:21:45.050Z,18.86
2022-08-09T22:24:21.186Z,18.87
2022-08-09T22:26:54.028Z,18.87
2022-08-09T22:29:28.824Z,18.85
2022-08-09T22:32:02.709Z,18.81
2022-08-09T22:34:30.881Z,18.77
2022-08-09T22:36:59.534Z,18.73
2022-08-09T22:39:55.838Z,18.70
2022-08-09T22:42:22.312Z,18.68
2022-08-09T22:45:00.278Z,18.65
2022-08-09T22:48:13.479Z,18.62
2022-08-09T22:50:32.256Z,18.94
2022-08-09T22:53:03.530Z,21.15
2022-08-09T22:55:39.728Z,22.68
2022-08-09T22:58:32.542Z,21.96
2022-08-09T23:01:06.117Z,21.11
2022-08-09T23:04:05.076Z,20.57
2022-08-09T23:06:35.816Z,20.19
2022-08-09T23:09:06.397Z,19.95
2022-08-09T23:11:35.030Z,19.76
2022-08-09T23:14:09.754Z,19.59
2022-08-09T23:16:38.749Z,19.45
2022-08-09T23:19:06.921Z,19.32
2022-08-09T23:21:36.545Z,19.21
2022-08-09T23:24:08.696Z,19.12
2022-08-09T23:26:37.688Z,19.03
2022-08-09T23:29:08.527Z,18.93
2022-08-09T23:31:36.701Z,18.83
2022-08-09T23:34:04.978Z,18.74
2022-08-09T23:36:36.016Z,18.67
2022-08-09T23:39:06.674Z,18.59
2022-08-09T23:41:35.436Z,18.51
2022-08-09T23:44:04.802Z,18.44
2022-08-09T23:46:33.713Z,18.38
2022-08-09T23:49:02.113Z,18.34
2022-08-09T23:51:30.690Z,18.71
2022-08-09T23:54:02.155Z,20.97
2022-08-09T23:56:52.325Z,22.45
2022-08-09T23:59:23.410Z,21.66
